Observations for INVERNESS DALCROSS, United Kingdom (EGPE)

EGPE 250320Z 24013KT 9999 -RA FEW012 01/M00 Q1005   
EGPE 250250Z 24012KT 9999 -RA FEW012 SCT026 01/00 Q1006 
EGPE 250220Z AUTO 27011KT 9999 DZ FEW014/// 02/01 Q1006 
EGPE 250150Z AUTO 26015KT 9999 FEW020/// 02/00 Q1006
EGPE 250120Z AUTO 27010KT 9999 FEW022/// 02/00 Q1005
EGPE 250050Z AUTO 27014KT 9999 BKN029/// 02/00 Q1005
EGPE 250020Z AUTO 26015KT 9999 FEW028/// 02/M00 Q1005   
EGPE 242350Z AUTO 25011KT 9999 NCD 01/M00 Q1005 
EGPE 242320Z AUTO 24013KT 9999 NCD 01/M00 Q1005 
EGPE 242250Z AUTO 24015KT 9999 NCD 01/M00 Q1004 
EGPE 242220Z AUTO 25012KT 9999 NCD 01/M00 Q1004 
EGPE 242150Z AUTO 24011KT 9999 SCT024/// 01/M00 Q1004   
EGPE 242120Z 24012KT 9999 FEW022 01/M01 Q1004   
EGPE 242050Z 25013KT 9999 FEW022 01/M00 Q1004   
EGPE 242020Z 24013KT 9999 FEW022 01/M00 Q1004   
EGPE 241950Z 24012KT 9999 FEW012 01/M00 Q1004   
EGPE 241920Z 24014KT 9999 FEW012 01/00 Q1004
EGPE 241850Z 24013KT 9999 VCSH FEW002 SCT027 01/00 Q1004
EGPE 241820Z 24014KT 9999 VCSH FEW002 SCT027 01/00 Q1004
EGPE 241750Z 25014KT 9999 -SHRA FEW002 SCT020 01/00 Q1003   
EGPE 241720Z 25020KT 6000 -SHRA FEW002 SCT008 BKN020 01/00 Q1003
EGPE 241650Z 24014KT 6000 -SHRA FEW002 BKN020 01/00 Q1003   
EGPE 241620Z 24014KT 6000 -SHRA FEW000 BKN020CB 02/00 Q1003 
EGPE 241550Z 24015KT 6000 -SHRASN FEW000 BKN022CB 02/M00 Q1003  
EGPE 241520Z 24015KT 9999 VCSH FEW008 SCT022CB 02/M00 Q1003 
EGPE 241450Z 24013KT 9999 FEW008 FEW022CB 02/M00 Q1003  
EGPE 241420Z 24018KT 9999 FEW012 02/M00 Q1002   
EGPE 241350Z 24016KT 9999 FEW018 02/00 Q1002
EGPE 241320Z 24017KT 9999 FEW020 03/M00 Q1002   
EGPE 241250Z 24011KT 9999 FEW006 FEW020CB 02/00 Q1003   
EGPE 241220Z 24014KT 9999 FEW006 FEW020CB 03/01 Q1003   
EGPE 241150Z 23014KT 9999 FEW006 FEW020CB 02/00 Q1003   
EGPE 241120Z 21015KT 9999 FEW002 SCT015CB BKN030 02/00 Q1003
EGPE 241050Z 24018KT 9999 VCSH FEW003 SCT015CB 02/M00 Q1003 
EGPE 241020Z 24015KT 9999 VCSH FEW010 FEW015CB SCT028 02/00 Q1003   
EGPE 240950Z 24018KT 9999 FEW010 FEW015CB 01/M00 Q1002  
EGPE 240920Z 25013KT 9999 FEW012 FEW020CB 01/M01 Q1002  
EGPE 240850Z 23015KT 9999 FEW012 FEW020CB 01/M01 Q1002  
EGPE 240820Z 23012KT 9999 FEW008 FEW015CB 00/M01 Q1002  
EGPE 240750Z 23007KT 9999 FEW008 FEW015CB 00/M01 Q1002  
EGPE 240720Z 23006KT 9999 FEW015 00/M01 Q1003   
EGPE 240650Z 25014KT 9999 FEW020 01/M00 Q1002   
EGPE 240620Z 24015KT 9999 FEW030 01/M00 Q1002   
EGPE 240550Z 23013KT CAVOK 01/M01 Q1002 
EGPE 240520Z 23012KT CAVOK 00/M01 Q1002 
EGPE 240450Z 24015KT CAVOK 01/M00 Q1001 
EGPE 240420Z 25014KT 9999 FEW020 01/M01 Q1001   
EGPE 240350Z 24007KT 9999 FEW020 01/M00 Q1001   
EGPE 240320Z 23013KT 9999 VCSH FEW018 01/00 Q1001 R05/29//95
EGPE 240250Z 26018KT 9999 -SHRASN SCT018 02/00 Q1001 R05/71//// R23/71////  
EGPE 240250Z 26018KT 9999 -SHRASN SCT018 02/00 Q1001 R05/71 R23/71////